sensor_id;sensor_type;location;lat;lon;timestamp;P1;durP1;ratioP1;P2;durP2;ratioP2
15716;SDS011;7960;50.908;4.204;2023-03-15T00:00:29;14.40;;;7.50;;
15716;SDS011;7960;50.908;4.204;2023-03-15T00:02:56;14.10;;;7.47;;
15716;SDS011;7960;50.908;4.204;2023-03-15T00:05:23;14.20;;;8.53;;
15716;SDS011;7960;50.908;4.204;2023-03-15T00:07:50;15.60;;;7.80;;
15716;SDS011;7960;50.908;4.204;2023-03-15T00:10:17;11.10;;;7.30;;
15716;SDS011;7960;50.908;4.204;2023-03-15T00:12:44;8.57;;;6.57;;
15716;SDS011;7960;50.908;4.204;2023-03-15T00:15:12;13.67;;;7.50;;
15716;SDS011;7960;50.908;4.204;2023-03-15T00:17:41;11.67;;;6.13;;
15716;SDS011;7960;50.908;4.204;2023-03-15T00:20:09;15.00;;;6.50;;
15716;SDS011;7960;50.908;4.204;2023-03-15T00:22:38;12.60;;;6.03;;
15716;SDS011;7960;50.908;4.204;2023-03-15T00:25:06;9.37;;;5.60;;
15716;SDS011;7960;50.908;4.204;2023-03-15T00:27:33;11.23;;;5.17;;
15716;SDS011;7960;50.908;4.204;2023-03-15T00:30:00;9.90;;;4.93;;
15716;SDS011;7960;50.908;4.204;2023-03-15T00:32:27;10.10;;;5.10;;
15716;SDS011;7960;50.908;4.204;2023-03-15T00:34:55;12.33;;;4.80;;
15716;SDS011;7960;50.908;4.204;2023-03-15T00:37:22;8.47;;;4.33;;
15716;SDS011;7960;50.908;4.204;2023-03-15T00:39:50;8.57;;;4.23;;
15716;SDS011;7960;50.908;4.204;2023-03-15T00:42:19;12.07;;;4.20;;
15716;SDS011;7960;50.908;4.204;2023-03-15T00:44:51;11.13;;;4.13;;
15716;SDS011;7960;50.908;4.204;2023-03-15T00:47:19;9.43;;;4.00;;
15716;SDS011;7960;50.908;4.204;2023-03-15T00:49:46;6.50;;;3.73;;
15716;SDS011;7960;50.908;4.204;2023-03-15T00:52:14;7.77;;;3.70;;
15716;SDS011;7960;50.908;4.204;2023-03-15T00:54:41;6.93;;;3.57;;
15716;SDS011;7960;50.908;4.204;2023-03-15T00:57:08;8.50;;;3.30;;
15716;SDS011;7960;50.908;4.204;2023-03-15T00:59:35;7.87;;;3.30;;
15716;SDS011;7960;50.908;4.204;2023-03-15T01:02:02;6.47;;;2.97;;
15716;SDS011;7960;50.908;4.204;2023-03-15T01:04:30;5.40;;;2.40;;
15716;SDS011;7960;50.908;4.204;2023-03-15T01:06:57;3.00;;;2.10;;
15716;SDS011;7960;50.908;4.204;2023-03-15T01:09:25;5.33;;;2.30;;
15716;SDS011;7960;50.908;4.204;2023-03-15T01:11:52;2.73;;;1.83;;
15716;SDS011;7960;50.908;4.204;2023-03-15T01:14:19;3.47;;;2.07;;
15716;SDS011;7960;50.908;4.204;2023-03-15T01:16:46;2.13;;;1.80;;
15716;SDS011;7960;50.908;4.204;2023-03-15T01:19:13;3.60;;;1.70;;
15716;SDS011;7960;50.908;4.204;2023-03-15T01:21:40;2.73;;;1.70;;
15716;SDS011;7960;50.908;4.204;2023-03-15T01:24:09;2.50;;;1.80;;
15716;SDS011;7960;50.908;4.204;2023-03-15T01:26:39;3.80;;;2.07;;
15716;SDS011;7960;50.908;4.204;2023-03-15T01:29:06;3.83;;;2.27;;
15716;SDS011;7960;50.908;4.204;2023-03-15T01:31:33;3.77;;;1.97;;
15716;SDS011;7960;50.908;4.204;2023-03-15T01:34:00;3.10;;;2.10;;
15716;SDS011;7960;50.908;4.204;2023-03-15T01:36:27;5.07;;;2.10;;
15716;SDS011;7960;50.908;4.204;2023-03-15T01:38:54;5.60;;;2.10;;
15716;SDS011;7960;50.908;4.204;2023-03-15T01:41:20;4.13;;;2.10;;
15716;SDS011;7960;50.908;4.204;2023-03-15T01:43:50;5.00;;;2.10;;
15716;SDS011;7960;50.908;4.204;2023-03-15T01:46:20;6.20;;;2.30;;
15716;SDS011;7960;50.908;4.204;2023-03-15T01:48:50;3.40;;;2.30;;
15716;SDS011;7960;50.908;4.204;2023-03-15T01:51:22;3.67;;;2.27;;
15716;SDS011;7960;50.908;4.204;2023-03-15T01:53:53;3.37;;;2.37;;
15716;SDS011;7960;50.908;4.204;2023-03-15T01:56:24;3.10;;;2.60;;
15716;SDS011;7960;50.908;4.204;2023-03-15T01:58:55;5.80;;;2.40;;
15716;SDS011;7960;50.908;4.204;2023-03-15T02:01:24;4.90;;;2.50;;
15716;SDS011;7960;50.908;4.204;2023-03-15T02:03:52;3.53;;;2.33;;
15716;SDS011;7960;50.908;4.204;2023-03-15T02:06:21;4.27;;;2.33;;
15716;SDS011;7960;50.908;4.204;2023-03-15T02:08:50;4.67;;;2.40;;
15716;SDS011;7960;50.908;4.204;2023-03-15T02:11:25;5.13;;;2.23;;
15716;SDS011;7960;50.908;4.204;2023-03-15T02:13:55;3.50;;;2.70;;
15716;SDS011;7960;50.908;4.204;2023-03-15T02:16:22;4.43;;;2.57;;
15716;SDS011;7960;50.908;4.204;2023-03-15T02:18:50;4.43;;;2.03;;
15716;SDS011;7960;50.908;4.204;2023-03-15T02:21:21;3.43;;;2.40;;
15716;SDS011;7960;50.908;4.204;2023-03-15T02:23:57;4.23;;;2.47;;
15716;SDS011;7960;50.908;4.204;2023-03-15T02:26:31;4.73;;;2.70;;
15716;SDS011;7960;50.908;4.204;2023-03-15T02:29:06;3.50;;;1.97;;
15716;SDS011;7960;50.908;4.204;2023-03-15T02:31:33;3.80;;;2.40;;
15716;SDS011;7960;50.908;4.204;2023-03-15T02:34:02;6.10;;;2.60;;
15716;SDS011;7960;50.908;4.204;2023-03-15T02:36:29;3.80;;;2.60;;
15716;SDS011;7960;50.908;4.204;2023-03-15T02:38:57;6.43;;;2.70;;
15716;SDS011;7960;50.908;4.204;2023-03-15T02:41:25;9.03;;;2.77;;
15716;SDS011;7960;50.908;4.204;2023-03-15T02:43:56;3.77;;;2.67;;
15716;SDS011;7960;50.908;4.204;2023-03-15T02:46:28;5.83;;;2.70;;
15716;SDS011;7960;50.908;4.204;2023-03-15T02:48:55;5.67;;;2.83;;
15716;SDS011;7960;50.908;4.204;2023-03-15T02:51:24;6.50;;;2.60;;
15716;SDS011;7960;50.908;4.204;2023-03-15T02:53:53;5.80;;;2.30;;
15716;SDS011;7960;50.908;4.204;2023-03-15T02:56:20;7.33;;;2.83;;
15716;SDS011;7960;50.908;4.204;2023-03-15T02:58:48;7.47;;;3.30;;
15716;SDS011;7960;50.908;4.204;2023-03-15T03:01:16;4.87;;;2.90;;
15716;SDS011;7960;50.908;4.204;2023-03-15T03:03:45;7.23;;;2.97;;
15716;SDS011;7960;50.908;4.204;2023-03-15T03:06:13;6.30;;;3.10;;
15716;SDS011;7960;50.908;4.204;2023-03-15T03:08:40;9.40;;;3.40;;
15716;SDS011;7960;50.908;4.204;2023-03-15T03:11:12;6.53;;;3.37;;
15716;SDS011;7960;50.908;4.204;2023-03-15T03:13:39;6.53;;;3.40;;
15716;SDS011;7960;50.908;4.204;2023-03-15T03:16:06;5.40;;;3.53;;
15716;SDS011;7960;50.908;4.204;2023-03-15T03:18:34;6.53;;;4.20;;
15716;SDS011;7960;50.908;4.204;2023-03-15T03:21:02;7.90;;;4.30;;
15716;SDS011;7960;50.908;4.204;2023-03-15T03:23:31;8.03;;;4.60;;
15716;SDS011;7960;50.908;4.204;2023-03-15T03:25:59;7.00;;;4.30;;
15716;SDS011;7960;50.908;4.204;2023-03-15T03:28:26;7.60;;;4.57;;
15716;SDS011;7960;50.908;4.204;2023-03-15T03:30:55;11.77;;;4.77;;
15716;SDS011;7960;50.908;4.204;2023-03-15T03:33:22;7.83;;;5.07;;
15716;SDS011;7960;50.908;4.204;2023-03-15T03:35:49;8.70;;;4.90;;
15716;SDS011;7960;50.908;4.204;2023-03-15T03:38:17;7.33;;;4.97;;
15716;SDS011;7960;50.908;4.204;2023-03-15T03:40:44;8.47;;;4.63;;
15716;SDS011;7960;50.908;4.204;2023-03-15T03:43:11;7.90;;;4.90;;
15716;SDS011;7960;50.908;4.204;2023-03-15T03:45:38;6.97;;;4.93;;
15716;SDS011;7960;50.908;4.204;2023-03-15T03:48:05;7.37;;;5.43;;
15716;SDS011;7960;50.908;4.204;2023-03-15T03:50:31;8.03;;;5.13;;
15716;SDS011;7960;50.908;4.204;2023-03-15T03:52:58;9.77;;;5.47;;
15716;SDS011;7960;50.908;4.204;2023-03-15T03:55:26;8.40;;;5.37;;
15716;SDS011;7960;50.908;4.204;2023-03-15T03:57:53;6.93;;;5.53;;
15716;SDS011;7960;50.908;4.204;2023-03-15T04:00:20;7.77;;;5.53;;
15716;SDS011;7960;50.908;4.204;2023-03-15T04:02:47;7.20;;;5.47;;
15716;SDS011;7960;50.908;4.204;2023-03-15T04:05:18;11.93;;;6.03;;
15716;SDS011;7960;50.908;4.204;2023-03-15T04:07:45;7.37;;;5.67;;
15716;SDS011;7960;50.908;4.204;2023-03-15T04:10:11;9.77;;;6.00;;
15716;SDS011;7960;50.908;4.204;2023-03-15T04:12:40;8.17;;;5.50;;
15716;SDS011;7960;50.908;4.204;2023-03-15T04:15:08;7.93;;;5.53;;
15716;SDS011;7960;50.908;4.204;2023-03-15T04:17:35;9.93;;;5.43;;
15716;SDS011;7960;50.908;4.204;2023-03-15T04:20:03;6.80;;;5.40;;
15716;SDS011;7960;50.908;4.204;2023-03-15T04:22:31;10.53;;;5.80;;
15716;SDS011;7960;50.908;4.204;2023-03-15T04:24:59;16.10;;;6.07;;
15716;SDS011;7960;50.908;4.204;2023-03-15T04:27:27;10.13;;;5.60;;
15716;SDS011;7960;50.908;4.204;2023-03-15T04:29:55;12.27;;;6.23;;
15716;SDS011;7960;50.908;4.204;2023-03-15T04:32:22;7.47;;;5.80;;
15716;SDS011;7960;50.908;4.204;2023-03-15T04:34:49;7.07;;;5.63;;
15716;SDS011;7960;50.908;4.204;2023-03-15T04:37:16;8.10;;;5.50;;
15716;SDS011;7960;50.908;4.204;2023-03-15T04:39:43;7.87;;;5.03;;
15716;SDS011;7960;50.908;4.204;2023-03-15T04:42:10;13.00;;;5.70;;
15716;SDS011;7960;50.908;4.204;2023-03-15T04:44:36;8.77;;;5.90;;
15716;SDS011;7960;50.908;4.204;2023-03-15T04:47:05;11.23;;;5.60;;
15716;SDS011;7960;50.908;4.204;2023-03-15T04:49:32;12.07;;;6.50;;
15716;SDS011;7960;50.908;4.204;2023-03-15T04:51:59;9.17;;;6.27;;
15716;SDS011;7960;50.908;4.204;2023-03-15T04:54:26;9.43;;;5.73;;
15716;SDS011;7960;50.908;4.204;2023-03-15T04:56:52;9.53;;;5.67;;
15716;SDS011;7960;50.908;4.204;2023-03-15T04:59:19;13.27;;;6.67;;
15716;SDS011;7960;50.908;4.204;2023-03-15T05:01:46;10.80;;;6.80;;
15716;SDS011;7960;50.908;4.204;2023-03-15T05:04:15;12.27;;;6.87;;
15716;SDS011;7960;50.908;4.204;2023-03-15T05:06:42;13.60;;;7.00;;
15716;SDS011;7960;50.908;4.204;2023-03-15T05:09:09;15.37;;;6.97;;
15716;SDS011;7960;50.908;4.204;2023-03-15T05:11:43;11.83;;;6.83;;
15716;SDS011;7960;50.908;4.204;2023-03-15T05:14:10;15.27;;;7.63;;
15716;SDS011;7960;50.908;4.204;2023-03-15T05:16:37;15.00;;;6.63;;
15716;SDS011;7960;50.908;4.204;2023-03-15T05:19:04;10.17;;;6.70;;
15716;SDS011;7960;50.908;4.204;2023-03-15T05:21:32;18.83;;;12.17;;
15716;SDS011;7960;50.908;4.204;2023-03-15T05:23:59;13.37;;;7.67;;
15716;SDS011;7960;50.908;4.204;2023-03-15T05:26:26;12.40;;;6.93;;
15716;SDS011;7960;50.908;4.204;2023-03-15T05:28:53;14.57;;;6.77;;
15716;SDS011;7960;50.908;4.204;2023-03-15T05:31:19;11.07;;;6.90;;
15716;SDS011;7960;50.908;4.204;2023-03-15T05:33:46;11.70;;;7.10;;
15716;SDS011;7960;50.908;4.204;2023-03-15T05:36:13;10.43;;;6.90;;
15716;SDS011;7960;50.908;4.204;2023-03-15T05:38:42;18.13;;;7.73;;
15716;SDS011;7960;50.908;4.204;2023-03-15T05:41:09;9.90;;;6.97;;
15716;SDS011;7960;50.908;4.204;2023-03-15T05:43:36;13.60;;;8.00;;
15716;SDS011;7960;50.908;4.204;2023-03-15T05:46:03;12.57;;;7.70;;
15716;SDS011;7960;50.908;4.204;2023-03-15T05:48:30;11.00;;;7.23;;
15716;SDS011;7960;50.908;4.204;2023-03-15T05:50:57;13.00;;;7.30;;
15716;SDS011;7960;50.908;4.204;2023-03-15T05:53:23;12.23;;;7.70;;
15716;SDS011;7960;50.908;4.204;2023-03-15T05:55:51;12.87;;;8.20;;
15716;SDS011;7960;50.908;4.204;2023-03-15T05:58:18;10.93;;;7.43;;
15716;SDS011;7960;50.908;4.204;2023-03-15T06:00:45;11.47;;;8.17;;
15716;SDS011;7960;50.908;4.204;2023-03-15T06:03:13;12.87;;;7.97;;
15716;SDS011;7960;50.908;4.204;2023-03-15T06:05:40;12.00;;;7.97;;
15716;SDS011;7960;50.908;4.204;2023-03-15T06:08:07;12.60;;;7.87;;
15716;SDS011;7960;50.908;4.204;2023-03-15T06:10:34;11.67;;;8.37;;
15716;SDS011;7960;50.908;4.204;2023-03-15T06:13:03;15.07;;;8.23;;
15716;SDS011;7960;50.908;4.204;2023-03-15T06:15:29;15.03;;;8.97;;
15716;SDS011;7960;50.908;4.204;2023-03-15T06:17:56;11.83;;;7.67;;
15716;SDS011;7960;50.908;4.204;2023-03-15T06:20:23;12.43;;;8.60;;
15716;SDS011;7960;50.908;4.204;2023-03-15T06:22:50;11.37;;;7.60;;
15716;SDS011;7960;50.908;4.204;2023-03-15T06:25:17;10.30;;;8.17;;
15716;SDS011;7960;50.908;4.204;2023-03-15T06:27:44;9.90;;;8.10;;
15716;SDS011;7960;50.908;4.204;2023-03-15T06:30:13;13.37;;;8.13;;
15716;SDS011;7960;50.908;4.204;2023-03-15T06:32:40;12.50;;;8.40;;
15716;SDS011;7960;50.908;4.204;2023-03-15T06:35:07;14.53;;;8.37;;
15716;SDS011;7960;50.908;4.204;2023-03-15T06:37:34;13.03;;;8.60;;
15716;SDS011;7960;50.908;4.204;2023-03-15T06:40:01;14.57;;;8.73;;
15716;SDS011;7960;50.908;4.204;2023-03-15T06:42:31;12.87;;;8.13;;
15716;SDS011;7960;50.908;4.204;2023-03-15T06:44:58;14.67;;;8.90;;
15716;SDS011;7960;50.908;4.204;2023-03-15T06:47:26;12.23;;;8.30;;
15716;SDS011;7960;50.908;4.204;2023-03-15T06:49:53;17.20;;;8.73;;
15716;SDS011;7960;50.908;4.204;2023-03-15T06:52:20;12.03;;;8.10;;
15716;SDS011;7960;50.908;4.204;2023-03-15T06:54:46;13.33;;;8.40;;
15716;SDS011;7960;50.908;4.204;2023-03-15T06:57:13;12.03;;;8.47;;
15716;SDS011;7960;50.908;4.204;2023-03-15T06:59:40;12.70;;;8.27;;
15716;SDS011;7960;50.908;4.204;2023-03-15T07:02:08;15.97;;;9.33;;
15716;SDS011;7960;50.908;4.204;2023-03-15T07:04:40;13.20;;;8.80;;
15716;SDS011;7960;50.908;4.204;2023-03-15T07:07:08;12.87;;;8.40;;
15716;SDS011;7960;50.908;4.204;2023-03-15T07:09:35;13.93;;;9.50;;
15716;SDS011;7960;50.908;4.204;2023-03-15T07:12:02;13.43;;;8.93;;
15716;SDS011;7960;50.908;4.204;2023-03-15T07:14:29;11.67;;;8.43;;
15716;SDS011;7960;50.908;4.204;2023-03-15T07:16:56;13.90;;;9.53;;
15716;SDS011;7960;50.908;4.204;2023-03-15T07:19:23;14.87;;;9.50;;
15716;SDS011;7960;50.908;4.204;2023-03-15T07:21:51;11.63;;;8.60;;
15716;SDS011;7960;50.908;4.204;2023-03-15T07:24:18;13.80;;;9.47;;
15716;SDS011;7960;50.908;4.204;2023-03-15T07:26:44;12.60;;;9.00;;
15716;SDS011;7960;50.908;4.204;2023-03-15T07:29:11;12.40;;;8.70;;
15716;SDS011;7960;50.908;4.204;2023-03-15T07:31:38;11.40;;;8.37;;
15716;SDS011;7960;50.908;4.204;2023-03-15T07:34:05;10.83;;;7.30;;
15716;SDS011;7960;50.908;4.204;2023-03-15T07:36:32;12.23;;;7.67;;
15716;SDS011;7960;50.908;4.204;2023-03-15T07:39:00;13.00;;;7.97;;
15716;SDS011;7960;50.908;4.204;2023-03-15T07:41:27;11.90;;;7.97;;
15716;SDS011;7960;50.908;4.204;2023-03-15T07:43:53;11.07;;;6.70;;
15716;SDS011;7960;50.908;4.204;2023-03-15T07:46:20;10.30;;;6.93;;
15716;SDS011;7960;50.908;4.204;2023-03-15T07:48:48;12.47;;;7.70;;
15716;SDS011;7960;50.908;4.204;2023-03-15T07:51:15;10.50;;;6.93;;
15716;SDS011;7960;50.908;4.204;2023-03-15T07:53:42;11.30;;;7.33;;
15716;SDS011;7960;50.908;4.204;2023-03-15T07:56:10;12.60;;;7.10;;
15716;SDS011;7960;50.908;4.204;2023-03-15T07:58:37;9.77;;;6.60;;
15716;SDS011;7960;50.908;4.204;2023-03-15T08:01:04;13.30;;;7.37;;
15716;SDS011;7960;50.908;4.204;2023-03-15T08:03:31;10.87;;;6.90;;
15716;SDS011;7960;50.908;4.204;2023-03-15T08:05:57;11.13;;;7.17;;
15716;SDS011;7960;50.908;4.204;2023-03-15T08:08:24;11.33;;;6.70;;
15716;SDS011;7960;50.908;4.204;2023-03-15T08:10:51;10.83;;;6.90;;
15716;SDS011;7960;50.908;4.204;2023-03-15T08:13:21;10.07;;;6.60;;
15716;SDS011;7960;50.908;4.204;2023-03-15T08:15:48;10.47;;;6.90;;
15716;SDS011;7960;50.908;4.204;2023-03-15T08:18:15;10.37;;;6.93;;
15716;SDS011;7960;50.908;4.204;2023-03-15T08:20:42;10.93;;;6.33;;
15716;SDS011;7960;50.908;4.204;2023-03-15T08:23:09;8.90;;;6.67;;
15716;SDS011;7960;50.908;4.204;2023-03-15T08:25:40;9.70;;;7.30;;
15716;SDS011;7960;50.908;4.204;2023-03-15T08:28:07;9.80;;;6.30;;
15716;SDS011;7960;50.908;4.204;2023-03-15T08:30:35;8.60;;;6.60;;
15716;SDS011;7960;50.908;4.204;2023-03-15T08:33:02;12.70;;;6.57;;
15716;SDS011;7960;50.908;4.204;2023-03-15T08:35:30;12.47;;;7.47;;
15716;SDS011;7960;50.908;4.204;2023-03-15T08:37:58;11.60;;;6.53;;
15716;SDS011;7960;50.908;4.204;2023-03-15T08:40:27;10.00;;;6.63;;
15716;SDS011;7960;50.908;4.204;2023-03-15T08:42:54;7.77;;;6.00;;
15716;SDS011;7960;50.908;4.204;2023-03-15T08:45:22;10.43;;;6.47;;
15716;SDS011;7960;50.908;4.204;2023-03-15T08:47:54;7.67;;;5.47;;
15716;SDS011;7960;50.908;4.204;2023-03-15T08:50:21;10.60;;;5.77;;
15716;SDS011;7960;50.908;4.204;2023-03-15T08:52:49;10.50;;;6.00;;
15716;SDS011;7960;50.908;4.204;2023-03-15T08:55:16;7.73;;;5.60;;
15716;SDS011;7960;50.908;4.204;2023-03-15T08:57:43;13.57;;;6.10;;
15716;SDS011;7960;50.908;4.204;2023-03-15T09:00:10;19.57;;;7.17;;
15716;SDS011;7960;50.908;4.204;2023-03-15T09:02:42;16.40;;;6.27;;
15716;SDS011;7960;50.908;4.204;2023-03-15T09:05:10;14.30;;;5.43;;
15716;SDS011;7960;50.908;4.204;2023-03-15T09:07:37;9.00;;;4.77;;
15716;SDS011;7960;50.908;4.204;2023-03-15T09:10:06;18.93;;;5.37;;
15716;SDS011;7960;50.908;4.204;2023-03-15T09:12:34;10.30;;;4.43;;
15716;SDS011;7960;50.908;4.204;2023-03-15T09:15:01;9.30;;;3.80;;
15716;SDS011;7960;50.908;4.204;2023-03-15T09:17:28;15.60;;;3.93;;
15716;SDS011;7960;50.908;4.204;2023-03-15T09:19:54;15.67;;;3.97;;
15716;SDS011;7960;50.908;4.204;2023-03-15T09:22:23;10.40;;;2.77;;
15716;SDS011;7960;50.908;4.204;2023-03-15T09:24:50;15.00;;;4.77;;
15716;SDS011;7960;50.908;4.204;2023-03-15T09:27:17;31.87;;;6.10;;
15716;SDS011;7960;50.908;4.204;2023-03-15T09:29:43;16.70;;;5.30;;
15716;SDS011;7960;50.908;4.204;2023-03-15T09:32:10;54.57;;;7.50;;
15716;SDS011;7960;50.908;4.204;2023-03-15T09:34:37;28.47;;;5.87;;
15716;SDS011;7960;50.908;4.204;2023-03-15T09:37:04;23.40;;;5.37;;
15716;SDS011;7960;50.908;4.204;2023-03-15T09:39:33;4.20;;;2.67;;
15716;SDS011;7960;50.908;4.204;2023-03-15T09:42:00;32.77;;;5.67;;
15716;SDS011;7960;50.908;4.204;2023-03-15T09:44:35;15.20;;;3.57;;
15716;SDS011;7960;50.908;4.204;2023-03-15T09:49:55;14.33;;;3.20;;
15716;SDS011;7960;50.908;4.204;2023-03-15T09:52:29;5.17;;;3.10;;
15716;SDS011;7960;50.908;4.204;2023-03-15T09:55:04;5.80;;;4.00;;
15716;SDS011;7960;50.908;4.204;2023-03-15T09:57:39;7.03;;;3.07;;
15716;SDS011;7960;50.908;4.204;2023-03-15T10:00:11;11.70;;;4.20;;
15716;SDS011;7960;50.908;4.204;2023-03-15T10:02:42;9.23;;;3.33;;
15716;SDS011;7960;50.908;4.204;2023-03-15T10:05:14;44.03;;;5.53;;
15716;SDS011;7960;50.908;4.204;2023-03-15T10:07:45;16.67;;;3.87;;
15716;SDS011;7960;50.908;4.204;2023-03-15T10:10:18;11.63;;;4.27;;
15716;SDS011;7960;50.908;4.204;2023-03-15T10:12:51;7.80;;;3.10;;
15716;SDS011;7960;50.908;4.204;2023-03-15T10:15:28;24.67;;;4.63;;
15716;SDS011;7960;50.908;4.204;2023-03-15T10:18:09;17.47;;;4.20;;
15716;SDS011;7960;50.908;4.204;2023-03-15T10:20:51;6.83;;;3.60;;
15716;SDS011;7960;50.908;4.204;2023-03-15T10:23:24;8.90;;;2.97;;
15716;SDS011;7960;50.908;4.204;2023-03-15T10:26:02;24.87;;;4.87;;
15716;SDS011;7960;50.908;4.204;2023-03-15T10:28:32;31.27;;;6.27;;
15716;SDS011;7960;50.908;4.204;2023-03-15T10:31:04;30.53;;;5.73;;
15716;SDS011;7960;50.908;4.204;2023-03-15T10:33:37;6.87;;;4.03;;
15716;SDS011;7960;50.908;4.204;2023-03-15T10:36:10;14.03;;;3.57;;
15716;SDS011;7960;50.908;4.204;2023-03-15T10:38:40;42.80;;;7.13;;
15716;SDS011;7960;50.908;4.204;2023-03-15T10:41:08;6.03;;;3.30;;
15716;SDS011;7960;50.908;4.204;2023-03-15T10:43:38;24.47;;;4.67;;
15716;SDS011;7960;50.908;4.204;2023-03-15T10:46:07;6.93;;;3.13;;
15716;SDS011;7960;50.908;4.204;2023-03-15T10:48:36;18.10;;;3.83;;
15716;SDS011;7960;50.908;4.204;2023-03-15T10:51:04;8.97;;;3.40;;
15716;SDS011;7960;50.908;4.204;2023-03-15T10:53:33;3.23;;;2.40;;
15716;SDS011;7960;50.908;4.204;2023-03-15T10:56:03;14.47;;;3.07;;
15716;SDS011;7960;50.908;4.204;2023-03-15T10:58:39;7.87;;;2.67;;
15716;SDS011;7960;50.908;4.204;2023-03-15T11:01:10;5.37;;;3.10;;
15716;SDS011;7960;50.908;4.204;2023-03-15T11:03:46;9.17;;;2.70;;
15716;SDS011;7960;50.908;4.204;2023-03-15T11:06:26;7.27;;;2.70;;
15716;SDS011;7960;50.908;4.204;2023-03-15T11:08:57;6.07;;;2.60;;
15716;SDS011;7960;50.908;4.204;2023-03-15T11:11:47;7.13;;;2.70;;
15716;SDS011;7960;50.908;4.204;2023-03-15T11:14:17;8.33;;;2.70;;
15716;SDS011;7960;50.908;4.204;2023-03-15T11:16:46;4.17;;;2.63;;
15716;SDS011;7960;50.908;4.204;2023-03-15T11:19:14;7.43;;;3.00;;
15716;SDS011;7960;50.908;4.204;2023-03-15T11:21:43;16.77;;;3.97;;
15716;SDS011;7960;50.908;4.204;2023-03-15T11:24:20;4.13;;;2.53;;
15716;SDS011;7960;50.908;4.204;2023-03-15T11:26:50;24.07;;;4.43;;
15716;SDS011;7960;50.908;4.204;2023-03-15T11:29:21;9.40;;;3.60;;
15716;SDS011;7960;50.908;4.204;2023-03-15T11:31:51;8.17;;;3.27;;
15716;SDS011;7960;50.908;4.204;2023-03-15T11:34:21;6.93;;;3.43;;
15716;SDS011;7960;50.908;4.204;2023-03-15T11:36:54;9.27;;;3.00;;
15716;SDS011;7960;50.908;4.204;2023-03-15T11:39:28;3.57;;;3.00;;
15716;SDS011;7960;50.908;4.204;2023-03-15T11:42:01;4.30;;;2.90;;
15716;SDS011;7960;50.908;4.204;2023-03-15T11:44:38;9.40;;;3.53;;
15716;SDS011;7960;50.908;4.204;2023-03-15T11:47:11;10.87;;;3.30;;
15716;SDS011;7960;50.908;4.204;2023-03-15T11:49:42;20.20;;;7.23;;
15716;SDS011;7960;50.908;4.204;2023-03-15T11:52:14;12.60;;;3.53;;
15716;SDS011;7960;50.908;4.204;2023-03-15T11:54:41;5.87;;;3.10;;
15716;SDS011;7960;50.908;4.204;2023-03-15T12:00:16;5.77;;;2.67;;
15716;SDS011;7960;50.908;4.204;2023-03-15T12:02:49;4.13;;;2.60;;
15716;SDS011;7960;50.908;4.204;2023-03-15T12:08:18;8.87;;;3.30;;
15716;SDS011;7960;50.908;4.204;2023-03-15T12:10:49;9.37;;;2.70;;
15716;SDS011;7960;50.908;4.204;2023-03-15T12:13:24;10.13;;;3.10;;
15716;SDS011;7960;50.908;4.204;2023-03-15T12:15:54;3.87;;;2.87;;
15716;SDS011;7960;50.908;4.204;2023-03-15T12:18:32;10.03;;;3.10;;
15716;SDS011;7960;50.908;4.204;2023-03-15T12:21:06;8.90;;;2.97;;
15716;SDS011;7960;50.908;4.204;2023-03-15T12:23:47;8.20;;;2.33;;
15716;SDS011;7960;50.908;4.204;2023-03-15T12:26:30;3.67;;;2.17;;
15716;SDS011;7960;50.908;4.204;2023-03-15T12:29:14;7.07;;;2.80;;
15716;SDS011;7960;50.908;4.204;2023-03-15T12:31:49;4.93;;;2.30;;
15716;SDS011;7960;50.908;4.204;2023-03-15T12:34:26;2.83;;;2.30;;
15716;SDS011;7960;50.908;4.204;2023-03-15T12:37:02;3.93;;;2.30;;
15716;SDS011;7960;50.908;4.204;2023-03-15T12:39:39;4.67;;;2.27;;
15716;SDS011;7960;50.908;4.204;2023-03-15T12:42:12;11.03;;;2.90;;
15716;SDS011;7960;50.908;4.204;2023-03-15T12:44:54;16.17;;;4.17;;
15716;SDS011;7960;50.908;4.204;2023-03-15T12:48:19;7.00;;;2.90;;
15716;SDS011;7960;50.908;4.204;2023-03-15T12:50:55;3.83;;;2.20;;
15716;SDS011;7960;50.908;4.204;2023-03-15T12:53:28;5.27;;;2.10;;
15716;SDS011;7960;50.908;4.204;2023-03-15T12:56:16;2.73;;;2.00;;
15716;SDS011;7960;50.908;4.204;2023-03-15T12:58:56;3.80;;;2.10;;
15716;SDS011;7960;50.908;4.204;2023-03-15T13:01:26;4.50;;;2.23;;
15716;SDS011;7960;50.908;4.204;2023-03-15T13:03:54;2.30;;;2.10;;
15716;SDS011;7960;50.908;4.204;2023-03-15T13:06:26;5.63;;;2.17;;
15716;SDS011;7960;50.908;4.204;2023-03-15T13:09:10;7.13;;;2.20;;
15716;SDS011;7960;50.908;4.204;2023-03-15T13:11:46;2.57;;;2.10;;
15716;SDS011;7960;50.908;4.204;2023-03-15T13:14:28;10.13;;;2.50;;
15716;SDS011;7960;50.908;4.204;2023-03-15T13:17:02;2.73;;;1.97;;
15716;SDS011;7960;50.908;4.204;2023-03-15T13:19:43;2.97;;;1.80;;
15716;SDS011;7960;50.908;4.204;2023-03-15T13:22:13;3.10;;;1.83;;
15716;SDS011;7960;50.908;4.204;2023-03-15T13:24:50;7.57;;;2.10;;
15716;SDS011;7960;50.908;4.204;2023-03-15T13:27:27;2.93;;;1.83;;
15716;SDS011;7960;50.908;4.204;2023-03-15T13:30:06;3.90;;;1.80;;
15716;SDS011;7960;50.908;4.204;2023-03-15T13:33:02;5.80;;;2.27;;
15716;SDS011;7960;50.908;4.204;2023-03-15T13:35:32;6.07;;;2.00;;
15716;SDS011;7960;50.908;4.204;2023-03-15T13:38:06;5.30;;;1.90;;
15716;SDS011;7960;50.908;4.204;2023-03-15T13:40:47;2.23;;;1.80;;
15716;SDS011;7960;50.908;4.204;2023-03-15T13:43:14;3.90;;;1.83;;
15716;SDS011;7960;50.908;4.204;2023-03-15T13:45:41;4.33;;;1.87;;
15716;SDS011;7960;50.908;4.204;2023-03-15T13:48:08;3.23;;;1.93;;
15716;SDS011;7960;50.908;4.204;2023-03-15T13:50:36;8.27;;;2.40;;
15716;SDS011;7960;50.908;4.204;2023-03-15T13:53:03;4.03;;;2.00;;
15716;SDS011;7960;50.908;4.204;2023-03-15T13:55:31;2.53;;;1.83;;
15716;SDS011;7960;50.908;4.204;2023-03-15T13:58:03;3.20;;;2.00;;
15716;SDS011;7960;50.908;4.204;2023-03-15T14:00:33;2.00;;;1.67;;
15716;SDS011;7960;50.908;4.204;2023-03-15T14:03:01;2.37;;;1.83;;
15716;SDS011;7960;50.908;4.204;2023-03-15T14:05:32;2.43;;;1.90;;
15716;SDS011;7960;50.908;4.204;2023-03-15T14:08:14;3.93;;;2.17;;
15716;SDS011;7960;50.908;4.204;2023-03-15T14:10:56;24.93;;;3.63;;
15716;SDS011;7960;50.908;4.204;2023-03-15T14:13:25;6.77;;;2.27;;
15716;SDS011;7960;50.908;4.204;2023-03-15T14:15:57;6.17;;;2.50;;
15716;SDS011;7960;50.908;4.204;2023-03-15T14:18:29;6.77;;;2.40;;
15716;SDS011;7960;50.908;4.204;2023-03-15T14:20:58;3.57;;;2.27;;
15716;SDS011;7960;50.908;4.204;2023-03-15T14:23:30;3.60;;;2.30;;
15716;SDS011;7960;50.908;4.204;2023-03-15T14:26:03;3.00;;;2.17;;
15716;SDS011;7960;50.908;4.204;2023-03-15T14:28:35;3.13;;;2.23;;
15716;SDS011;7960;50.908;4.204;2023-03-15T14:31:03;9.60;;;2.50;;
15716;SDS011;7960;50.908;4.204;2023-03-15T14:33:31;2.63;;;2.00;;
15716;SDS011;7960;50.908;4.204;2023-03-15T14:36:00;4.23;;;1.60;;
15716;SDS011;7960;50.908;4.204;2023-03-15T14:38:34;2.27;;;1.77;;
15716;SDS011;7960;50.908;4.204;2023-03-15T14:41:20;2.33;;;1.80;;
15716;SDS011;7960;50.908;4.204;2023-03-15T14:43:50;3.30;;;1.70;;
15716;SDS011;7960;50.908;4.204;2023-03-15T14:46:17;3.57;;;1.97;;
15716;SDS011;7960;50.908;4.204;2023-03-15T14:48:45;2.53;;;1.77;;
15716;SDS011;7960;50.908;4.204;2023-03-15T14:51:13;2.67;;;1.80;;
15716;SDS011;7960;50.908;4.204;2023-03-15T14:53:43;5.00;;;2.30;;
15716;SDS011;7960;50.908;4.204;2023-03-15T14:56:11;4.77;;;2.00;;
15716;SDS011;7960;50.908;4.204;2023-03-15T14:58:39;3.63;;;2.07;;
15716;SDS011;7960;50.908;4.204;2023-03-15T15:01:06;7.30;;;2.30;;
15716;SDS011;7960;50.908;4.204;2023-03-15T15:03:37;3.23;;;1.70;;
15716;SDS011;7960;50.908;4.204;2023-03-15T15:06:07;4.53;;;2.20;;
15716;SDS011;7960;50.908;4.204;2023-03-15T15:08:36;2.47;;;1.90;;
15716;SDS011;7960;50.908;4.204;2023-03-15T15:11:07;3.40;;;2.00;;
15716;SDS011;7960;50.908;4.204;2023-03-15T15:13:35;2.43;;;1.87;;
15716;SDS011;7960;50.908;4.204;2023-03-15T15:16:03;2.10;;;1.90;;
15716;SDS011;7960;50.908;4.204;2023-03-15T15:18:31;5.30;;;2.20;;